Time;durP1;ratioP1;P1;durP2;ratioP2;P2;SDS_P1;SDS_P2;PMS_P1;PMS_P2;Temp;Humidity;BMP_temperature;BMP_pressure;BME280_temperature;BME280_humidity;BME280_pressure;Samples;Min_cycle;Max_cycle;Signal;HPM_P1;HPM_P2
2021/07/26 00:00:48;;;;;;;17.30;14.32;;;25.50;64.90;;;;;;5035190;28;20147;-72
2021/07/26 00:03:14;;;;;;;16.27;13.70;;;25.50;65.10;;;;;;5035521;28;20052;-72
2021/07/26 00:05:39;;;;;;;19.13;14.25;;;25.50;65.00;;;;;;5035384;28;20033;-72
2021/07/26 00:08:06;;;;;;;14.18;12.45;;;25.50;65.40;;;;;;5035022;28;20041;-73
2021/07/26 00:10:33;;;;;;;16.17;14.50;;;25.50;65.40;;;;;;5034190;28;20029;-73
2021/07/26 00:12:59;;;;;;;18.90;14.05;;;25.50;65.70;;;;;;5034888;28;20036;-73
2021/07/26 00:15:25;;;;;;;20.17;14.52;;;25.50;65.90;;;;;;5034583;28;20034;-73
2021/07/26 00:17:51;;;;;;;17.90;15.98;;;25.50;66.10;;;;;;5034855;28;20052;-73
2021/07/26 00:20:16;;;;;;;15.82;14.10;;;25.50;66.40;;;;;;5034786;28;20021;-73
2021/07/26 00:22:43;;;;;;;17.98;14.43;;;25.50;66.50;;;;;;5034707;28;20034;-77
2021/07/26 00:25:09;;;;;;;17.98;13.77;;;25.50;66.50;;;;;;5034999;28;20112;-72
2021/07/26 00:27:36;;;;;;;19.98;14.80;;;25.50;66.60;;;;;;5034629;28;20075;-72
2021/07/26 00:30:01;;;;;;;17.85;14.57;;;25.50;66.70;;;;;;5034656;28;20029;-72
2021/07/26 00:32:29;;;;;;;17.23;14.55;;;25.50;66.80;;;;;;5034334;28;20037;-72
2021/07/26 00:34:58;;;;;;;17.20;13.93;;;25.50;66.90;;;;;;5034179;28;20495;-72
2021/07/26 00:37:26;;;;;;;16.27;13.85;;;25.60;67.00;;;;;;5033208;28;20056;-72
2021/07/26 00:39:53;;;;;;;14.70;13.07;;;25.60;67.00;;;;;;5035023;28;20380;-72
2021/07/26 00:42:20;;;;;;;18.33;12.38;;;25.60;67.00;;;;;;5034350;28;20034;-72
2021/07/26 00:44:46;;;;;;;14.10;12.40;;;25.50;66.80;;;;;;5034675;28;20376;-73
2021/07/26 00:47:12;;;;;;;14.48;12.20;;;25.60;66.70;;;;;;5034296;28;20029;-72
2021/07/26 00:49:38;;;;;;;17.55;13.18;;;25.50;66.60;;;;;;5034529;28;20022;-73
2021/07/26 00:52:04;;;;;;;15.23;12.82;;;25.60;66.80;;;;;;5034492;28;20036;-72
2021/07/26 00:54:37;;;;;;;16.75;13.82;;;25.50;66.90;;;;;;5034522;28;20053;-72
2021/07/26 00:57:04;;;;;;;16.65;12.85;;;25.50;67.00;;;;;;5034434;28;20041;-72
2021/07/26 00:59:30;;;;;;;18.77;12.35;;;25.50;66.90;;;;;;5034190;28;20032;-72
2021/07/26 01:01:57;;;;;;;12.35;11.07;;;25.50;66.80;;;;;;5033943;28;20051;-73
2021/07/26 01:04:23;;;;;;;14.63;11.70;;;25.50;66.70;;;;;;5034342;28;20022;-72
2021/07/26 01:06:49;;;;;;;14.07;11.38;;;25.50;66.60;;;;;;5034032;28;20033;-72
2021/07/26 01:09:16;;;;;;;12.57;11.27;;;25.50;66.60;;;;;;5033962;28;20053;-72
2021/07/26 01:11:44;;;;;;;13.82;11.40;;;25.50;66.60;;;;;;5033941;28;20448;-72
2021/07/26 01:14:11;;;;;;;12.50;10.80;;;25.50;66.70;;;;;;5033897;28;20025;-72
2021/07/26 01:16:37;;;;;;;13.63;11.13;;;25.50;66.80;;;;;;5034115;28;20455;-73
2021/07/26 01:19:03;;;;;;;14.82;11.50;;;25.50;66.80;;;;;;5034054;28;20056;-72
2021/07/26 01:21:32;;;;;;;15.02;10.93;;;25.50;66.70;;;;;;5033716;28;20026;-72
2021/07/26 01:24:01;;;;;;;14.15;11.48;;;25.50;66.60;;;;;;5033741;28;20526;-72
2021/07/26 01:26:28;;;;;;;11.52;10.32;;;25.50;66.50;;;;;;5033740;28;20113;-73
2021/07/26 01:28:55;;;;;;;15.48;10.18;;;25.50;66.50;;;;;;5033688;28;20079;-72
2021/07/26 01:31:21;;;;;;;13.63;10.45;;;25.50;67.10;;;;;;5033729;28;20587;-72
2021/07/26 01:33:47;;;;;;;17.00;11.23;;;25.50;66.40;;;;;;5033357;28;20025;-72
2021/07/26 01:36:15;;;;;;;11.80;9.85;;;25.50;66.30;;;;;;5033281;28;20037;-72
2021/07/26 01:38:43;;;;;;;14.93;10.00;;;25.50;66.40;;;;;;5032291;28;20044;-72
2021/07/26 01:41:11;;;;;;;15.07;11.30;;;25.60;66.30;;;;;;5034018;28;20525;-73
2021/07/26 01:43:50;;;;;;;14.73;11.07;;;25.60;66.30;;;;;;5033482;28;20095;-72
2021/07/26 01:46:50;;;;;;;13.13;11.25;;;25.60;66.30;;;;;;5033754;28;20468;-72
2021/07/26 01:50:01;;;;;;;14.93;11.70;;;25.60;66.30;;;;;;5026203;28;20045;-73
2021/07/26 01:52:27;;;;;;;13.18;11.77;;;25.60;66.40;;;;;;5031223;28;20045;-72
2021/07/26 01:54:53;;;;;;;12.60;10.38;;;25.60;66.40;;;;;;5033332;28;20037;-72
2021/07/26 01:57:18;;;;;;;13.95;10.63;;;25.60;66.70;;;;;;5033289;28;20060;-72
2021/07/26 01:59:46;;;;;;;11.48;10.18;;;25.60;66.80;;;;;;5033658;28;20030;-72
2021/07/26 02:02:12;;;;;;;16.00;11.52;;;25.60;66.90;;;;;;5033349;28;20038;-72
2021/07/26 02:04:38;;;;;;;17.08;11.80;;;25.60;67.00;;;;;;5033387;28;20037;-72
2021/07/26 02:07:06;;;;;;;14.65;11.27;;;25.60;67.10;;;;;;5033804;28;20038;-72
2021/07/26 02:09:33;;;;;;;12.45;10.73;;;25.60;67.30;;;;;;5033175;28;20029;-72
2021/07/26 02:11:59;;;;;;;11.55;10.35;;;25.60;67.40;;;;;;5033167;28;20084;-72
2021/07/26 02:14:24;;;;;;;12.50;10.70;;;25.60;67.40;;;;;;5033452;28;20022;-72
2021/07/26 02:16:52;;;;;;;14.23;11.43;;;25.50;67.50;;;;;;5033079;28;20029;-73
2021/07/26 02:19:19;;;;;;;13.23;11.40;;;25.60;67.60;;;;;;5033022;28;20033;-72
2021/07/26 02:21:44;;;;;;;15.20;12.25;;;25.60;67.70;;;;;;5033358;28;20456;-73
2021/07/26 02:24:10;;;;;;;14.90;11.20;;;25.60;67.90;;;;;;5032751;28;20133;-72
2021/07/26 02:26:36;;;;;;;14.60;11.40;;;25.50;67.70;;;;;;5033009;28;20026;-72
2021/07/26 02:29:02;;;;;;;12.20;10.90;;;25.60;67.80;;;;;;5032261;28;20140;-73
2021/07/26 02:31:27;;;;;;;12.38;11.07;;;25.60;67.60;;;;;;5032962;28;20547;-72
2021/07/26 02:33:53;;;;;;;13.70;10.95;;;25.60;67.40;;;;;;5037035;28;20120;-73
2021/07/26 02:36:19;;;;;;;15.70;11.18;;;25.60;67.20;;;;;;5036890;28;20112;-72
2021/07/26 02:38:44;;;;;;;15.70;11.93;;;25.60;67.20;;;;;;5036779;28;20033;-72
2021/07/26 02:41:15;;;;;;;13.20;11.80;;;25.60;67.20;;;;;;5036979;28;20061;-73
2021/07/26 02:43:42;;;;;;;15.32;12.02;;;25.60;67.30;;;;;;5036591;28;20079;-72
2021/07/26 02:46:09;;;;;;;14.20;12.18;;;25.60;67.40;;;;;;5036568;28;20476;-72
2021/07/26 02:48:36;;;;;;;14.20;12.20;;;25.60;67.30;;;;;;5036473;28;20116;-72
2021/07/26 02:51:02;;;;;;;13.63;12.05;;;25.60;67.30;;;;;;5036474;28;20085;-72
2021/07/26 02:53:28;;;;;;;16.67;11.80;;;25.60;67.40;;;;;;5036735;28;20537;-72
2021/07/26 02:55:54;;;;;;;14.73;12.43;;;25.70;67.40;;;;;;5036779;28;20034;-73
2021/07/26 02:58:20;;;;;;;16.88;13.18;;;25.70;67.50;;;;;;5036687;28;20108;-72
2021/07/26 03:00:47;;;;;;;15.32;11.77;;;25.70;67.60;;;;;;5036303;28;20028;-72
2021/07/26 03:03:13;;;;;;;13.23;11.57;;;25.70;67.60;;;;;;5036922;28;20348;-72
2021/07/26 03:05:38;;;;;;;12.48;10.77;;;25.70;67.50;;;;;;5036500;28;20036;-72
2021/07/26 03:08:04;;;;;;;15.05;10.70;;;25.70;67.30;;;;;;5035868;28;20092;-72
2021/07/26 03:10:30;;;;;;;13.23;9.73;;;25.80;67.10;;;;;;5036110;28;20025;-72
2021/07/26 03:12:56;;;;;;;10.60;8.70;;;25.80;66.70;;;;;;5036708;28;20029;-73
2021/07/26 03:15:23;;;;;;;10.88;9.23;;;25.80;66.40;;;;;;5035968;28;20484;-72
2021/07/26 03:17:49;;;;;;;14.63;8.85;;;25.80;66.10;;;;;;5036368;28;20057;-72
2021/07/26 03:20:15;;;;;;;10.65;8.23;;;25.80;65.80;;;;;;5035942;28;20032;-73
2021/07/26 03:23:07;;;;;;;11.38;8.75;;;25.80;65.60;;;;;;5035700;28;20037;-73
2021/07/26 03:25:37;;;;;;;10.32;8.20;;;25.80;65.50;;;;;;5036510;28;20029;-73
2021/07/26 03:28:03;;;;;;;11.48;8.15;;;25.80;65.50;;;;;;5035573;28;20135;-73
2021/07/26 03:30:29;;;;;;;10.60;8.52;;;25.80;65.50;;;;;;5036521;28;20472;-72
2021/07/26 03:32:55;;;;;;;14.30;8.95;;;25.90;65.60;;;;;;5034382;28;20029;-76
2021/07/26 03:35:22;;;;;;;11.40;9.02;;;25.90;65.50;;;;;;5035603;28;20037;-72
2021/07/26 03:37:48;;;;;;;13.98;9.02;;;25.90;65.50;;;;;;5035679;28;20432;-72
2021/07/26 03:40:14;;;;;;;10.15;9.00;;;25.90;65.50;;;;;;5035566;28;20025;-73
2021/07/26 03:42:41;;;;;;;10.80;8.65;;;25.90;65.50;;;;;;5035511;28;20029;-72
2021/07/26 03:45:09;;;;;;;12.70;9.38;;;25.90;65.60;;;;;;5034218;28;20459;-73
2021/07/26 03:47:35;;;;;;;12.55;9.20;;;25.90;65.60;;;;;;5036033;28;20029;-73
2021/07/26 03:50:01;;;;;;;14.05;9.27;;;26.00;65.60;;;;;;5035435;28;20068;-73
2021/07/26 03:52:27;;;;;;;14.45;8.82;;;26.00;65.60;;;;;;5035050;28;20029;-71
2021/07/26 03:54:57;;;;;;;17.05;9.48;;;26.00;65.50;;;;;;5035292;28;20036;-72
2021/07/26 03:57:23;;;;;;;13.68;9.25;;;26.10;65.70;;;;;;5035240;28;20100;-72
2021/07/26 03:59:49;;;;;;;17.30;9.48;;;26.10;65.70;;;;;;5034808;28;20365;-73
2021/07/26 04:02:14;;;;;;;16.65;9.98;;;26.20;65.70;;;;;;5035363;28;20060;-71
2021/07/26 04:04:41;;;;;;;13.05;9.43;;;26.20;65.80;;;;;;5035490;28;20109;-71
2021/07/26 04:07:13;;;;;;;14.45;9.48;;;26.30;65.80;;;;;;5035088;28;20041;-71
2021/07/26 04:09:44;;;;;;;12.20;8.73;;;26.40;65.90;;;;;;5033816;28;20030;-71
2021/07/26 04:12:15;;;;;;;16.23;10.30;;;26.50;65.70;;;;;;5033780;28;20025;-72
2021/07/26 04:14:42;;;;;;;12.00;9.07;;;26.70;65.70;;;;;;5035113;28;20051;-72
2021/07/26 04:17:08;;;;;;;11.45;9.73;;;26.80;65.50;;;;;;5034896;28;20038;-72
2021/07/26 04:19:33;;;;;;;18.15;10.40;;;26.90;65.40;;;;;;5034714;28;20452;-71
2021/07/26 04:21:59;;;;;;;15.93;9.95;;;27.10;65.40;;;;;;5035083;28;20030;-71
2021/07/26 04:24:25;;;;;;;13.63;9.70;;;27.30;65.20;;;;;;5035222;28;20025;-71
2021/07/26 04:26:55;;;;;;;14.55;8.82;;;27.50;65.00;;;;;;5034928;28;20075;-72
2021/07/26 04:29:21;;;;;;;15.70;8.98;;;27.70;64.80;;;;;;5034608;28;20112;-72
2021/07/26 04:31:47;;;;;;;13.00;9.27;;;27.80;64.50;;;;;;5034799;28;20439;-73
2021/07/26 04:34:13;;;;;;;12.25;8.85;;;28.00;64.70;;;;;;5035383;28;20388;-71
2021/07/26 04:36:39;;;;;;;14.52;9.13;;;28.00;64.60;;;;;;5034753;28;20030;-71
2021/07/26 04:39:04;;;;;;;11.27;8.35;;;28.10;64.70;;;;;;5034076;28;20029;-72
2021/07/26 04:41:33;;;;;;;9.68;8.05;;;28.20;64.50;;;;;;5034091;28;20022;-73
2021/07/26 04:43:59;;;;;;;10.85;8.55;;;28.20;64.60;;;;;;5034299;28;20490;-73
2021/07/26 04:46:24;;;;;;;10.25;8.27;;;28.20;64.60;;;;;;5035086;28;20068;-73
2021/07/26 04:48:50;;;;;;;17.70;10.15;;;28.30;64.50;;;;;;5034406;28;20025;-72
2021/07/26 04:51:16;;;;;;;12.70;8.73;;;28.30;64.60;;;;;;5034358;28;20065;-73
2021/07/26 04:53:41;;;;;;;13.73;8.88;;;28.40;64.50;;;;;;5032783;28;20432;-73
2021/07/26 04:56:07;;;;;;;13.02;8.90;;;28.40;64.50;;;;;;5033623;28;20032;-74
2021/07/26 04:58:34;;;;;;;12.55;9.23;;;28.40;64.40;;;;;;5034699;28;20030;-73
2021/07/26 05:01:00;;;;;;;14.65;10.15;;;28.50;64.60;;;;;;5034025;28;20392;-73
2021/07/26 05:03:25;;;;;;;13.40;9.40;;;28.50;64.60;;;;;;5034624;28;20053;-73
2021/07/26 05:05:51;;;;;;;14.23;10.52;;;28.50;64.60;;;;;;5033625;28;20121;-73
2021/07/26 05:08:17;;;;;;;21.45;10.32;;;28.40;64.60;;;;;;5034274;28;20030;-73
2021/07/26 05:10:46;;;;;;;13.40;10.13;;;28.50;64.90;;;;;;5034141;28;20021;-73
2021/07/26 05:13:15;;;;;;;17.45;11.30;;;28.40;64.70;;;;;;5034123;28;20052;-73
2021/07/26 05:15:41;;;;;;;13.80;10.30;;;28.40;64.90;;;;;;5033755;28;20029;-73
2021/07/26 05:18:07;;;;;;;15.18;10.18;;;28.40;65.00;;;;;;5033821;28;20400;-72
2021/07/26 05:20:33;;;;;;;16.70;10.45;;;28.30;65.00;;;;;;5034156;28;20021;-71
2021/07/26 05:22:59;;;;;;;15.77;9.73;;;28.30;65.10;;;;;;5033723;28;20037;-71
2021/07/26 05:25:25;;;;;;;12.82;10.23;;;28.30;65.10;;;;;;5033845;28;20104;-71
2021/07/26 05:27:50;;;;;;;21.58;10.05;;;28.30;65.20;;;;;;5033704;28;20109;-72
2021/07/26 05:30:16;;;;;;;20.40;10.25;;;28.40;65.30;;;;;;5033690;28;20025;-72
2021/07/26 05:32:42;;;;;;;25.67;9.48;;;28.40;65.30;;;;;;5033709;28;20021;-71
2021/07/26 05:35:08;;;;;;;17.13;9.95;;;28.40;65.30;;;;;;5033046;28;20083;-71
2021/07/26 05:37:35;;;;;;;10.63;8.32;;;28.40;65.40;;;;;;5033505;28;20029;-71
2021/07/26 05:40:01;;;;;;;14.15;9.27;;;28.50;65.30;;;;;;5033680;28;20033;-73
2021/07/26 05:42:27;;;;;;;14.48;9.43;;;28.50;65.30;;;;;;5033833;28;20028;-71
2021/07/26 05:44:55;;;;;;;17.58;9.00;;;28.50;65.30;;;;;;5033634;28;20021;-71
2021/07/26 05:47:21;;;;;;;13.98;8.85;;;28.60;65.40;;;;;;5033545;28;20021;-71
2021/07/26 05:49:46;;;;;;;10.93;8.30;;;28.70;65.10;;;;;;5033562;28;20084;-71
2021/07/26 05:52:12;;;;;;;14.50;8.82;;;28.70;64.80;;;;;;5033288;28;20080;-71
2021/07/26 05:54:38;;;;;;;15.90;8.75;;;28.80;64.10;;;;;;5033276;28;20026;-73
2021/07/26 05:57:09;;;;;;;12.60;7.90;;;28.90;63.70;;;;;;5033201;28;20045;-73
2021/07/26 05:59:36;;;;;;;13.82;8.05;;;28.90;63.00;;;;;;5033705;28;20349;-73
2021/07/26 06:02:01;;;;;;;16.23;8.57;;;29.00;62.40;;;;;;5033042;28;20046;-73
2021/07/26 06:04:27;;;;;;;17.95;9.55;;;29.00;62.40;;;;;;5033154;28;20026;-73
2021/07/26 06:06:54;;;;;;;14.57;9.05;;;29.10;63.00;;;;;;5033392;28;20030;-73
2021/07/26 06:09:21;;;;;;;12.05;8.88;;;29.20;63.80;;;;;;5036353;28;20029;-73
2021/07/26 06:11:49;;;;;;;13.63;9.02;;;29.20;64.20;;;;;;5037113;28;20083;-73
2021/07/26 06:14:15;;;;;;;13.50;9.50;;;29.20;64.30;;;;;;5036972;28;20061;-73
2021/07/26 06:16:46;;;;;;;16.05;9.40;;;29.20;64.70;;;;;;5035495;28;20041;-74
2021/07/26 06:19:12;;;;;;;12.77;9.20;;;29.20;64.70;;;;;;5036582;28;20078;-73
2021/07/26 06:21:46;;;;;;;16.30;9.40;;;29.30;64.50;;;;;;5036692;28;20029;-72
2021/07/26 06:24:13;;;;;;;19.85;9.15;;;29.30;64.60;;;;;;5036999;28;20048;-72
2021/07/26 06:26:39;;;;;;;12.90;8.65;;;29.40;64.50;;;;;;5036751;28;20471;-73
2021/07/26 06:29:05;;;;;;;17.48;9.40;;;29.40;64.20;;;;;;5036964;28;20026;-73
2021/07/26 06:31:32;;;;;;;10.93;8.65;;;29.50;64.10;;;;;;5036909;28;20029;-73
2021/07/26 06:33:59;;;;;;;11.48;8.73;;;29.60;63.90;;;;;;5036717;28;20026;-72
2021/07/26 06:36:25;;;;;;;12.73;8.98;;;29.60;63.70;;;;;;5034943;28;20048;-73
2021/07/26 06:38:51;;;;;;;13.63;9.77;;;29.70;63.80;;;;;;5036777;28;20076;-72
2021/07/26 06:41:17;;;;;;;11.82;9.48;;;29.70;64.10;;;;;;5036467;28;20436;-72
2021/07/26 06:43:42;;;;;;;14.70;9.80;;;29.80;64.20;;;;;;5036200;28;20025;-72
2021/07/26 06:46:08;;;;;;;12.25;9.45;;;29.80;64.30;;;;;;5036351;28;20065;-72
2021/07/26 06:48:34;;;;;;;17.75;9.63;;;29.80;64.10;;;;;;5036214;28;20079;-71
2021/07/26 06:51:02;;;;;;;15.02;9.48;;;29.90;64.10;;;;;;5035852;28;20031;-71
2021/07/26 06:53:28;;;;;;;16.50;9.48;;;29.80;63.60;;;;;;5036613;28;20029;-72
2021/07/26 06:55:54;;;;;;;15.52;9.70;;;29.80;64.10;;;;;;5036649;28;20033;-72
2021/07/26 06:58:19;;;;;;;13.10;9.40;;;29.80;64.00;;;;;;5036214;28;20029;-72
2021/07/26 07:00:45;;;;;;;14.02;9.95;;;29.80;64.00;;;;;;5036016;28;20022;-73
2021/07/26 07:03:10;;;;;;;14.02;9.68;;;29.80;63.80;;;;;;5036661;28;20506;-73
2021/07/26 07:05:36;;;;;;;14.00;9.40;;;29.80;63.80;;;;;;5035914;28;20531;-72
2021/07/26 07:08:03;;;;;;;23.98;10.00;;;29.80;63.70;;;;;;5036096;28;20364;-73
2021/07/26 07:10:29;;;;;;;13.52;9.57;;;29.80;63.70;;;;;;5036157;28;20103;-74
2021/07/26 07:12:55;;;;;;;13.90;8.88;;;29.80;63.80;;;;;;5035918;28;20022;-73
2021/07/26 07:15:22;;;;;;;13.82;9.10;;;29.80;63.70;;;;;;5035918;28;20037;-72
2021/07/26 07:17:48;;;;;;;11.65;8.77;;;29.80;63.70;;;;;;5035702;28;20040;-72
2021/07/26 07:20:15;;;;;;;14.68;8.93;;;29.90;63.50;;;;;;5036375;28;20029;-73
2021/07/26 07:22:40;;;;;;;12.32;8.65;;;29.90;63.40;;;;;;5035256;28;20199;-72
2021/07/26 07:25:06;;;;;;;12.25;8.50;;;29.90;63.10;;;;;;5035787;28;20057;-72
2021/07/26 07:27:32;;;;;;;15.50;8.35;;;30.00;62.90;;;;;;5035703;28;20035;-72
2021/07/26 07:29:58;;;;;;;13.85;9.50;;;30.10;62.70;;;;;;5035506;28;20053;-72
2021/07/26 07:32:23;;;;;;;13.73;9.18;;;30.20;62.40;;;;;;5035724;28;20052;-72
2021/07/26 07:34:49;;;;;;;14.88;9.77;;;30.20;61.90;;;;;;5035737;28;20025;-73
2021/07/26 07:37:15;;;;;;;17.10;9.48;;;30.20;61.90;;;;;;5035625;28;20075;-73
2021/07/26 07:39:42;;;;;;;21.13;10.32;;;30.20;61.90;;;;;;5035652;28;20112;-73
2021/07/26 07:42:09;;;;;;;15.98;9.63;;;30.20;62.00;;;;;;5034994;28;20022;-75
2021/07/26 07:44:35;;;;;;;12.27;9.20;;;30.20;62.10;;;;;;5035491;28;20033;-73
2021/07/26 07:47:02;;;;;;;15.10;9.40;;;30.30;62.20;;;;;;5035770;28;20041;-74
2021/07/26 07:49:28;;;;;;;22.30;10.40;;;30.40;62.30;;;;;;5035073;28;20029;-73
2021/07/26 07:51:55;;;;;;;17.10;9.88;;;30.40;62.40;;;;;;5033880;28;20372;-73
2021/07/26 07:54:21;;;;;;;13.18;8.88;;;30.50;62.40;;;;;;5034866;28;20387;-73
2021/07/26 07:56:48;;;;;;;16.63;10.30;;;30.60;62.40;;;;;;5035003;28;20029;-74
2021/07/26 07:59:14;;;;;;;20.58;9.80;;;30.60;62.20;;;;;;5034944;28;20031;-74
2021/07/26 08:01:42;;;;;;;16.75;10.18;;;30.70;62.00;;;;;;5040048;28;20030;-74
2021/07/26 08:04:08;;;;;;;15.82;10.07;;;30.70;62.00;;;;;;5035261;28;20030;-74
2021/07/26 08:06:36;;;;;;;14.80;9.82;;;30.80;61.80;;;;;;5035098;28;20088;-73
2021/07/26 08:09:02;;;;;;;12.27;9.18;;;30.80;61.80;;;;;;5034710;28;20037;-73
2021/07/26 08:11:28;;;;;;;13.15;10.38;;;30.90;61.40;;;;;;5034692;28;20365;-73
2021/07/26 08:13:54;;;;;;;17.33;9.80;;;31.10;61.30;;;;;;5034542;28;20026;-74
2021/07/26 08:16:23;;;;;;;12.35;9.52;;;31.20;61.00;;;;;;5034554;28;20037;-73
2021/07/26 08:18:49;;;;;;;15.65;9.50;;;31.20;60.70;;;;;;5034482;28;20080;-74
2021/07/26 08:21:15;;;;;;;16.00;9.63;;;31.30;60.40;;;;;;5034258;28;20104;-72
2021/07/26 08:23:41;;;;;;;17.15;10.35;;;31.50;60.80;;;;;;5033929;28;20076;-74
2021/07/26 08:26:07;;;;;;;20.65;11.65;;;31.50;60.00;;;;;;5034388;28;20468;-73
2021/07/26 08:28:32;;;;;;;33.20;10.10;;;31.70;59.80;;;;;;5034291;28;20105;-74
2021/07/26 08:31:01;;;;;;;18.65;11.52;;;31.80;59.60;;;;;;5033394;28;20021;-74
2021/07/26 08:33:26;;;;;;;15.35;11.80;;;31.90;59.70;;;;;;5034367;28;20075;-73
2021/07/26 08:35:52;;;;;;;18.92;12.57;;;32.00;59.60;;;;;;5034245;28;20033;-74
2021/07/26 08:38:18;;;;;;;19.45;13.10;;;32.10;59.30;;;;;;5034870;28;20033;-74
2021/07/26 08:40:45;;;;;;;20.35;13.05;;;32.20;59.10;;;;;;5034605;28;20498;-74
2021/07/26 08:43:12;;;;;;;17.20;11.88;;;32.40;58.70;;;;;;5034534;28;20478;-74
2021/07/26 08:45:38;;;;;;;17.20;13.07;;;32.60;58.10;;;;;;5034110;28;20025;-75
2021/07/26 08:48:09;;;;;;;17.08;12.65;;;32.90;57.90;;;;;;5033741;28;20522;-74
2021/07/26 08:50:37;;;;;;;17.33;12.55;;;33.10;57.60;;;;;;5034057;28;20029;-72
2021/07/26 08:53:06;;;;;;;16.23;11.75;;;33.20;57.40;;;;;;5033785;28;20096;-72
2021/07/26 08:55:34;;;;;;;20.38;12.88;;;33.40;57.00;;;;;;5033765;28;20029;-77
2021/07/26 08:58:00;;;;;;;18.90;11.35;;;33.60;56.60;;;;;;5034152;28;20043;-74
2021/07/26 09:00:26;;;;;;;33.80;12.15;;;33.80;56.20;;;;;;5033540;28;20026;-73
2021/07/26 09:02:52;;;;;;;12.35;10.25;;;34.10;55.90;;;;;;5033636;28;20056;-75
2021/07/26 09:05:18;;;;;;;20.15;11.55;;;34.40;55.30;;;;;;5033335;28;20117;-74
2021/07/26 09:07:45;;;;;;;19.55;12.30;;;34.60;54.70;;;;;;5033250;28;20030;-73
2021/07/26 09:10:18;;;;;;;15.45;10.55;;;34.80;54.30;;;;;;5033424;28;20040;-74
2021/07/26 09:12:46;;;;;;;19.85;11.75;;;35.00;53.70;;;;;;5033641;28;20036;-73
2021/07/26 09:15:37;;;;;;;20.45;10.60;;;35.20;53.30;;;;;;5033755;28;20044;-73
2021/07/26 09:18:07;;;;;;;15.73;10.75;;;35.40;52.60;;;;;;5033527;28;20021;-74
2021/07/26 09:20:35;;;;;;;14.70;9.63;;;35.60;52.20;;;;;;5034051;28;20375;-74
2021/07/26 09:23:17;;;;;;;17.45;9.70;;;35.80;51.60;;;;;;5033553;28;20025;-74
2021/07/26 09:25:48;;;;;;;16.52;9.90;;;36.20;51.50;;;;;;5032586;28;20029;-73
2021/07/26 09:28:14;;;;;;;15.15;9.80;;;36.40;50.60;;;;;;5033977;28;20025;-75
2021/07/26 09:30:46;;;;;;;18.45;9.32;;;36.60;50.20;;;;;;5033405;28;20071;-73
2021/07/26 09:33:27;;;;;;;13.05;8.90;;;36.80;49.40;;;;;;5033416;28;20053;-75
2021/07/26 09:36:21;;;;;;;14.30;9.10;;;37.00;48.70;;;;;;5033704;28;20359;-73
2021/07/26 09:38:52;;;;;;;;;;;37.20;48.40;;;;;;5033734;28;20057;-73
2021/07/26 09:41:38;;;;;;;10.93;7.95;;;37.30;48.90;;;;;;5032904;28;19905;-73
2021/07/26 09:44:04;;;;;;;16.55;8.95;;;37.60;48.10;;;;;;5033027;28;20022;-72
2021/07/26 09:46:31;;;;;;;11.05;7.28;;;37.90;47.30;;;;;;5031907;28;20038;-72
2021/07/26 09:49:14;;;;;;;17.48;8.00;;;38.20;46.30;;;;;;5033196;28;20025;-73
2021/07/26 09:51:40;;;;;;;11.32;7.75;;;38.50;46.00;;;;;;5033510;28;20104;-73
2021/07/26 09:54:07;;;;;;;11.63;7.10;;;38.70;45.80;;;;;;5033513;28;20029;-75
2021/07/26 09:56:33;;;;;;;9.02;6.63;;;38.90;45.10;;;;;;5033056;28;20529;-73
2021/07/26 09:59:02;;;;;;;9.57;7.18;;;39.20;44.10;;;;;;5033167;28;20506;-73
2021/07/26 10:01:29;;;;;;;11.55;6.82;;;39.50;43.20;;;;;;5032831;28;20522;-73
2021/07/26 10:03:57;;;;;;;10.52;7.40;;;39.80;42.40;;;;;;5032563;28;20558;-73
2021/07/26 10:06:23;;;;;;;8.43;6.82;;;40.00;41.80;;;;;;5032861;28;20471;-73
2021/07/26 10:08:49;;;;;;;10.25;8.00;;;40.20;41.20;;;;;;5033076;28;20080;-73
2021/07/26 10:11:16;;;;;;;12.40;7.10;;;40.40;40.80;;;;;;5033274;28;20337;-74
2021/07/26 10:13:45;;;;;;;11.18;7.45;;;40.70;40.10;;;;;;5033368;28;20412;-73
2021/07/26 10:16:15;;;;;;;12.85;7.13;;;40.90;39.70;;;;;;5033179;28;20034;-73
2021/07/26 10:18:48;;;;;;;9.82;6.38;;;41.10;38.80;;;;;;5032978;28;20037;-72
2021/07/26 10:21:26;;;;;;;10.57;7.18;;;40.90;38.30;;;;;;5032875;28;20030;-73
2021/07/26 10:24:02;;;;;;;12.10;7.65;;;40.40;38.40;;;;;;5033658;28;20359;-73
2021/07/26 10:26:34;;;;;;;12.05;7.15;;;40.30;38.60;;;;;;5033067;28;20036;-73
2021/07/26 10:29:01;;;;;;;10.30;6.73;;;40.60;38.30;;;;;;5031708;28;20030;-72
2021/07/26 10:31:35;;;;;;;8.48;6.47;;;40.90;37.90;;;;;;5031585;28;20456;-72
2021/07/26 10:34:04;;;;;;;10.52;6.20;;;41.20;37.60;;;;;;5032436;28;20469;-72
2021/07/26 10:36:42;;;;;;;10.38;6.15;;;41.30;37.20;;;;;;5032639;28;20598;-72
2021/07/26 10:39:12;;;;;;;13.77;6.43;;;41.50;36.90;;;;;;5032851;28;20087;-72
2021/07/26 10:41:44;;;;;;;13.13;5.60;;;41.80;36.90;;;;;;5033169;28;20423;-72
2021/07/26 10:44:39;;;;;;;11.65;6.65;;;42.10;36.90;;;;;;5032625;28;20482;-73
2021/07/26 10:47:12;;;;;;;9.35;5.95;;;42.30;36.90;;;;;;5032854;28;20029;-76
2021/07/26 10:49:44;;;;;;;10.55;6.43;;;42.50;37.20;;;;;;5032982;28;20030;-73
2021/07/26 10:52:21;;;;;;;16.05;6.50;;;42.50;37.10;;;;;;5032500;28;20029;-73
2021/07/26 10:54:48;;;;;;;9.95;5.95;;;42.70;36.90;;;;;;5035033;28;20050;-73
2021/07/26 10:57:14;;;;;;;11.80;6.60;;;42.80;36.80;;;;;;5035960;28;20049;-73
2021/07/26 11:00:08;;;;;;;15.60;6.25;;;43.00;36.50;;;;;;5036336;28;20051;-75
2021/07/26 11:02:35;;;;;;;11.95;6.07;;;43.10;36.00;;;;;;5035558;28;20053;-73
2021/07/26 11:05:23;;;;;;;9.38;6.43;;;43.30;35.80;;;;;;5035468;28;20128;-74
2021/07/26 11:07:49;;;;;;;10.07;6.63;;;43.60;35.80;;;;;;5035536;28;20049;-74
2021/07/26 11:10:52;;;;;;;9.10;6.80;;;43.70;36.00;;;;;;5035820;28;20360;-74
2021/07/26 11:13:18;;;;;;;;;;;43.80;35.80;;;;;;4975555;28;20042;-73
2021/07/26 11:15:49;;;;;;;11.90;5.85;;;43.80;36.10;;;;;;5024215;28;20339;-73
2021/07/26 11:18:16;;;;;;;9.98;5.38;;;43.90;35.10;;;;;;5035354;28;20072;-73
2021/07/26 11:20:59;;;;;;;8.95;5.45;;;43.90;35.00;;;;;;5035799;28;20036;-74
2021/07/26 11:23:38;;;;;;;9.98;5.25;;;43.70;34.60;;;;;;5036077;28;20101;-73
2021/07/26 11:26:04;;;;;;;7.88;4.97;;;43.80;34.60;;;;;;5034129;28;20029;-73
2021/07/26 11:28:37;;;;;;;6.20;4.68;;;44.00;34.40;;;;;;5034438;28;20029;-73
2021/07/26 11:31:03;;;;;;;8.80;4.82;;;44.30;34.40;;;;;;5035682;28;20029;-74
2021/07/26 11:33:33;;;;;;;10.13;6.03;;;44.40;33.90;;;;;;5035859;28;20033;-73
2021/07/26 11:36:06;;;;;;;10.40;5.40;;;44.70;33.20;;;;;;5035299;28;20084;-73
2021/07/26 11:38:32;;;;;;;11.75;5.35;;;44.90;33.30;;;;;;5035313;28;20029;-73
2021/07/26 11:40:58;;;;;;;9.98;5.18;;;45.10;33.30;;;;;;5036197;28;20079;-74
2021/07/26 11:43:34;;;;;;;11.45;4.45;;;45.30;33.70;;;;;;5034091;28;20025;-75
2021/07/26 11:46:01;;;;;;;8.10;4.70;;;45.60;33.60;;;;;;5035221;28;20116;-74
2021/07/26 11:48:28;;;;;;;9.55;5.40;;;45.60;33.50;;;;;;5035276;28;20041;-73
2021/07/26 11:50:54;;;;;;;14.65;5.18;;;45.80;33.50;;;;;;5035219;28;20030;-73
2021/07/26 11:53:27;;;;;;;10.15;5.50;;;46.10;33.40;;;;;;5035312;28;20475;-73
2021/07/26 11:55:53;;;;;;;12.73;4.63;;;46.10;33.10;;;;;;5035578;28;20367;-73
2021/07/26 11:58:26;;;;;;;11.60;5.80;;;45.80;32.90;;;;;;5035000;28;20036;-73
2021/07/26 12:00:53;;;;;;;10.43;5.68;;;45.60;32.70;;;;;;5035330;28;20048;-73
2021/07/26 12:03:21;;;;;;;16.80;6.13;;;45.30;33.30;;;;;;5035525;28;20049;-72
2021/07/26 12:05:47;;;;;;;9.70;6.20;;;45.20;34.20;;;;;;5033826;28;20041;-73
2021/07/26 12:08:15;;;;;;;16.48;5.72;;;45.30;34.80;;;;;;5035546;28;20375;-73
2021/07/26 12:10:42;;;;;;;11.43;5.72;;;45.40;33.80;;;;;;5035687;28;20030;-73
2021/07/26 12:13:10;;;;;;;10.85;5.80;;;45.60;33.50;;;;;;5034949;28;20072;-73
2021/07/26 12:15:37;;;;;;;6.57;4.43;;;45.90;32.90;;;;;;5034616;28;20124;-74
2021/07/26 12:18:06;;;;;;;7.13;5.47;;;46.10;32.50;;;;;;5035450;28;20036;-73
2021/07/26 12:20:34;;;;;;;7.05;5.95;;;46.40;32.40;;;;;;5034936;28;20034;-72
2021/07/26 12:23:17;;;;;;;11.15;4.70;;;46.70;32.40;;;;;;5034749;28;20032;-74
2021/07/26 12:25:48;;;;;;;5.75;4.60;;;47.00;31.60;;;;;;5035083;28;20120;-75
2021/07/26 12:28:18;;;;;;;10.95;4.70;;;47.20;31.70;;;;;;5035073;28;20059;-74
2021/07/26 12:30:50;;;;;;;5.90;4.95;;;47.40;31.00;;;;;;5034944;28;20439;-73
2021/07/26 12:33:30;;;;;;;12.65;5.57;;;47.60;31.10;;;;;;5034315;28;20025;-70
2021/07/26 12:36:15;;;;;;;7.03;4.85;;;47.80;31.60;;;;;;5034561;28;20044;-73
2021/07/26 12:39:03;;;;;;;9.88;5.13;;;47.90;31.50;;;;;;5034970;28;20030;-81
2021/07/26 12:41:30;;;;;;;8.32;4.78;;;47.30;31.70;;;;;;5027334;28;20037;-73